Time;durP1;ratioP1;P1;durP2;ratioP2;P2;SDS_P1;SDS_P2;PMS_P1;PMS_P2;Temp;Humidity;BMP_temperature;BMP_pressure;BME280_temperature;BME280_humidity;BME280_pressure;Samples;Min_cycle;Max_cycle;Signal;HPM_P1;HPM_P2
2022/11/07 00:01:52;;;;;;;2.22;1.92;;;8.00;99.90;;;;;;5031438;28;20048;-81
2022/11/07 00:04:17;;;;;;;3.03;1.75;;;8.00;99.90;;;;;;5022761;28;20040;-82
2022/11/07 00:06:43;;;;;;;2.28;1.83;;;8.00;99.90;;;;;;5022032;28;20500;-81
2022/11/07 00:09:09;;;;;;;1.92;1.80;;;8.00;99.90;;;;;;5026221;28;20044;-82
2022/11/07 00:11:34;;;;;;;1.35;1.33;;;8.00;99.90;;;;;;5040078;28;20029;-81
2022/11/07 00:14:00;;;;;;;6.60;1.70;;;8.10;99.90;;;;;;5041106;28;20038;-81
2022/11/07 00:16:27;;;;;;;1.92;1.50;;;8.10;99.90;;;;;;5035598;28;20040;-82
2022/11/07 00:18:53;;;;;;;1.70;1.60;;;8.20;99.90;;;;;;5039471;28;20535;-82
2022/11/07 00:21:18;;;;;;;2.15;1.77;;;8.20;99.90;;;;;;5042263;28;20033;-82
2022/11/07 00:23:44;;;;;;;2.25;2.05;;;8.20;99.90;;;;;;5038199;28;20081;-81
2022/11/07 00:26:12;;;;;;;2.03;1.90;;;8.20;99.90;;;;;;5045648;28;20562;-82
2022/11/07 00:28:40;;;;;;;1.63;1.52;;;8.20;99.90;;;;;;5040964;28;20089;-82
2022/11/07 00:31:07;;;;;;;1.80;1.70;;;8.20;99.90;;;;;;5044605;28;20056;-82
2022/11/07 00:33:33;;;;;;;4.28;1.70;;;8.30;99.90;;;;;;5040315;28;20033;-82
2022/11/07 00:35:59;;;;;;;1.73;1.60;;;8.30;99.90;;;;;;5034092;28;20090;-88
2022/11/07 00:38:25;;;;;;;2.22;1.40;;;8.30;99.90;;;;;;5034882;28;20798;-82
2022/11/07 00:40:58;;;;;;;2.53;1.70;;;8.30;99.90;;;;;;5039362;28;20087;-81
2022/11/07 00:43:24;;;;;;;1.40;1.23;;;8.30;99.90;;;;;;5070366;28;20095;-81
2022/11/07 00:45:50;;;;;;;2.20;1.80;;;8.40;99.90;;;;;;5035600;28;20053;-81
2022/11/07 00:48:15;;;;;;;2.35;1.80;;;8.40;99.90;;;;;;5032533;28;20030;-82
2022/11/07 00:50:41;;;;;;;3.78;1.98;;;8.40;99.90;;;;;;5038071;28;20041;-82
2022/11/07 00:53:07;;;;;;;1.80;1.70;;;8.40;99.90;;;;;;5071261;28;20038;-81
2022/11/07 00:55:32;;;;;;;1.75;1.40;;;8.50;99.90;;;;;;5040239;28;20509;-82
2022/11/07 00:57:59;;;;;;;1.65;1.55;;;8.50;99.90;;;;;;5036862;28;20382;-82
2022/11/07 01:00:24;;;;;;;2.22;1.50;;;8.50;99.90;;;;;;5031910;28;20098;-82
2022/11/07 01:05:09;;;;;;;2.08;1.65;;;8.60;99.90;;;;;;5038590;28;20049;-82
2022/11/07 01:05:36;;;;;;;3.10;1.63;;;8.50;99.90;;;;;;5061002;28;20029;-82
2022/11/07 01:08:02;;;;;;;1.77;1.67;;;8.50;99.90;;;;;;5044621;28;20034;-82
2022/11/07 01:10:27;;;;;;;1.80;1.70;;;8.50;99.90;;;;;;5040207;28;20060;-83
2022/11/07 01:12:53;;;;;;;1.83;1.65;;;8.50;99.90;;;;;;5040200;28;20037;-82
2022/11/07 01:15:18;;;;;;;2.00;1.85;;;8.50;99.90;;;;;;5040254;28;20481;-81
2022/11/07 01:17:44;;;;;;;1.50;1.40;;;8.60;99.90;;;;;;5039303;28;20116;-82
2022/11/07 01:20:10;;;;;;;1.85;1.60;;;8.60;99.90;;;;;;5042227;28;20029;-82
2022/11/07 01:22:36;;;;;;;1.55;1.45;;;8.60;99.90;;;;;;5037276;28;20041;-82
2022/11/07 01:25:01;;;;;;;3.58;1.92;;;8.60;99.90;;;;;;5039455;28;20575;-83
2022/11/07 01:27:27;;;;;;;1.77;1.42;;;8.60;99.90;;;;;;5040672;28;20687;-82
2022/11/07 01:29:52;;;;;;;3.47;1.83;;;8.60;99.90;;;;;;5045030;28;20060;-82
2022/11/07 01:32:18;;;;;;;1.50;1.40;;;8.60;99.90;;;;;;5038143;28;22094;-82
2022/11/07 01:34:44;;;;;;;1.75;1.65;;;8.60;99.90;;;;;;5042502;28;20171;-82
2022/11/07 01:37:10;;;;;;;1.75;1.65;;;8.70;99.90;;;;;;5032066;28;20030;-86
2022/11/07 01:39:36;;;;;;;1.90;1.73;;;8.70;99.90;;;;;;5024965;28;20196;-84
2022/11/07 01:42:02;;;;;;;2.15;2.03;;;8.70;99.90;;;;;;5044940;28;20037;-82
2022/11/07 01:44:27;;;;;;;1.48;1.38;;;8.70;99.90;;;;;;5041072;28;20030;-81
2022/11/07 01:46:56;;;;;;;1.77;1.67;;;8.70;99.90;;;;;;5042282;28;20080;-82
2022/11/07 01:49:26;;;;;;;;;;;8.70;99.90;;;;;;5040140;28;20144;-83
2022/11/07 01:52:02;;;;;;;1.70;1.60;;;8.70;99.90;;;;;;5033458;28;19976;-82
2022/11/07 01:54:34;;;;;;;1.85;1.75;;;8.80;99.90;;;;;;5043738;28;20032;-82
2022/11/07 01:57:04;;;;;;;1.83;1.73;;;8.80;99.90;;;;;;5048915;28;20041;-82
2022/11/07 01:59:32;;;;;;;3.47;1.80;;;8.70;99.90;;;;;;5043889;28;20029;-82
2022/11/07 02:01:58;;;;;;;2.17;1.80;;;8.80;99.90;;;;;;5036866;28;20045;-81
2022/11/07 02:04:26;;;;;;;2.55;1.60;;;8.80;99.90;;;;;;5036929;28;20029;-81
2022/11/07 02:07:01;;;;;;;2.38;1.65;;;8.80;99.90;;;;;;5036256;28;20101;-82
2022/11/07 02:09:27;;;;;;;2.63;1.50;;;8.70;99.90;;;;;;5039387;28;20069;-82
2022/11/07 02:11:53;;;;;;;1.90;1.80;;;8.80;99.90;;;;;;5036128;28;20032;-82
2022/11/07 02:14:18;;;;;;;1.55;1.45;;;8.80;99.90;;;;;;5039259;28;20103;-81
2022/11/07 02:16:45;;;;;;;1.33;1.27;;;8.70;99.90;;;;;;5034433;28;20052;-82
2022/11/07 02:19:21;;;;;;;1.75;1.65;;;8.70;99.90;;;;;;5037342;28;20041;-81
2022/11/07 02:22:25;;;;;;;1.80;1.70;;;8.70;99.90;;;;;;5033175;28;20036;-81
2022/11/07 02:24:54;;;;;;;1.45;1.35;;;8.70;99.90;;;;;;5033849;28;20030;-81
2022/11/07 02:27:23;;;;;;;1.60;1.50;;;8.70;99.90;;;;;;5039954;28;20030;-82
2022/11/07 02:29:53;;;;;;;1.92;1.70;;;8.60;99.90;;;;;;5034563;28;20040;-82
2022/11/07 02:32:19;;;;;;;2.00;1.67;;;8.50;99.90;;;;;;5040098;28;20576;-82
2022/11/07 02:34:44;;;;;;;1.60;1.40;;;8.50;99.90;;;;;;5038401;28;20088;-82
2022/11/07 02:37:21;;;;;;;4.70;2.58;;;8.50;99.90;;;;;;5035411;28;20041;-81
2022/11/07 02:39:47;;;;;;;66.57;18.77;;;8.40;99.90;;;;;;5041560;28;20091;-82
2022/11/07 02:42:13;;;;;;;27.40;6.55;;;8.40;99.90;;;;;;5036807;28;20033;-82
2022/11/07 02:44:38;;;;;;;7.47;2.83;;;8.30;99.90;;;;;;5018672;28;20072;-81
2022/11/07 02:47:04;;;;;;;3.15;2.47;;;8.40;99.90;;;;;;5021200;28;20060;-82
2022/11/07 02:49:30;;;;;;;3.70;1.85;;;8.40;99.90;;;;;;5038501;28;20036;-82
2022/11/07 02:51:55;;;;;;;8.05;4.20;;;8.40;99.90;;;;;;5030279;28;20032;-82
2022/11/07 02:54:21;;;;;;;2.05;1.80;;;8.40;99.90;;;;;;5028558;28;20045;-82
2022/11/07 02:56:46;;;;;;;2.15;1.63;;;8.40;99.90;;;;;;5020273;28;20109;-82
2022/11/07 02:59:12;;;;;;;1.80;1.70;;;8.40;99.90;;;;;;5020938;28;20041;-83
2022/11/07 03:01:37;;;;;;;1.95;1.70;;;8.40;99.90;;;;;;5024387;28;20038;-83
2022/11/07 03:04:03;;;;;;;2.25;1.88;;;8.40;99.90;;;;;;5020906;28;20027;-82
2022/11/07 03:06:29;;;;;;;2.05;1.50;;;8.40;99.90;;;;;;5020010;28;20045;-82
2022/11/07 03:08:54;;;;;;;3.08;1.60;;;8.40;99.90;;;;;;5025175;28;20037;-86
2022/11/07 03:11:20;;;;;;;1.65;1.55;;;8.40;99.90;;;;;;5023485;28;20816;-82
2022/11/07 03:13:49;;;;;;;1.80;1.70;;;8.30;99.90;;;;;;5020423;28;20021;-82
2022/11/07 03:16:17;;;;;;;1.50;1.40;;;8.30;99.90;;;;;;5019893;28;20049;-82
2022/11/07 03:18:42;;;;;;;2.10;1.50;;;8.30;99.90;;;;;;5020950;28;20040;-82
2022/11/07 03:21:08;;;;;;;1.08;0.98;;;8.20;99.90;;;;;;5023781;28;20026;-82
2022/11/07 03:23:35;;;;;;;1.92;1.67;;;8.30;99.90;;;;;;5022984;28;20059;-81
2022/11/07 03:26:02;;;;;;;1.98;1.77;;;8.20;99.90;;;;;;5020440;28;20026;-82
2022/11/07 03:28:27;;;;;;;3.05;1.88;;;8.20;99.90;;;;;;5023498;28;20117;-81
2022/11/07 03:30:53;;;;;;;1.95;1.70;;;8.20;99.90;;;;;;5023094;28;20131;-82
2022/11/07 03:33:18;;;;;;;3.53;2.03;;;8.10;99.90;;;;;;5020900;28;20472;-81
2022/11/07 03:35:44;;;;;;;2.20;2.00;;;8.10;99.90;;;;;;5028674;28;20041;-82
2022/11/07 03:38:10;;;;;;;4.63;3.05;;;8.10;99.90;;;;;;5024339;28;20042;-81
2022/11/07 03:40:36;;;;;;;2.55;1.70;;;8.00;99.90;;;;;;5021161;28;20033;-82
2022/11/07 03:43:02;;;;;;;2.22;1.92;;;8.10;99.90;;;;;;5054605;28;20033;-81
2022/11/07 03:45:27;;;;;;;1.92;1.80;;;8.00;99.90;;;;;;5053972;28;20053;-82
2022/11/07 03:47:53;;;;;;;2.33;2.00;;;8.00;99.90;;;;;;5027069;28;20043;-82
2022/11/07 03:50:20;;;;;;;1.70;1.60;;;8.00;99.90;;;;;;5026481;28;20034;-82
2022/11/07 03:52:47;;;;;;;2.13;1.83;;;7.90;99.90;;;;;;5023907;28;20355;-82
2022/11/07 03:55:14;;;;;;;3.20;2.00;;;7.80;99.90;;;;;;5025319;28;20041;-82
2022/11/07 03:57:41;;;;;;;3.33;2.60;;;7.80;99.90;;;;;;5025518;28;20119;-82
2022/11/07 04:00:08;;;;;;;2.00;1.80;;;7.70;99.90;;;;;;5029700;28;20283;-81
2022/11/07 04:02:33;;;;;;;5.68;2.35;;;7.70;99.90;;;;;;5023023;28;20156;-82
2022/11/07 04:04:59;;;;;;;1.60;1.50;;;7.70;99.90;;;;;;5023917;28;20048;-85
2022/11/07 04:07:24;;;;;;;2.05;1.88;;;7.60;99.90;;;;;;5022463;28;20059;-84
2022/11/07 04:09:50;;;;;;;2.35;1.70;;;7.60;99.90;;;;;;5027859;28;20037;-82
2022/11/07 04:17:44;;;;;;;2.95;2.38;;;7.50;99.90;;;;;;5025601;28;20651;-83
2022/11/07 04:20:10;;;;;;;1.95;1.75;;;7.60;99.90;;;;;;5024354;28;20037;-86
2022/11/07 04:22:35;;;;;;;2.55;2.00;;;7.60;99.90;;;;;;5023080;28;20040;-83
2022/11/07 04:25:01;;;;;;;2.17;1.67;;;7.70;99.90;;;;;;5022191;28;20098;-82
2022/11/07 04:27:42;;;;;;;2.95;1.98;;;7.70;99.90;;;;;;5022877;28;20037;-82
2022/11/07 04:30:17;;;;;;;3.13;2.10;;;7.80;99.90;;;;;;5023923;28;20563;-83
2022/11/07 04:32:51;;;;;;;1.92;1.83;;;7.80;99.90;;;;;;5024739;28;20100;-84
2022/11/07 04:35:18;;;;;;;2.75;2.22;;;7.80;99.90;;;;;;5021177;28;20033;-82
2022/11/07 04:37:43;;;;;;;2.53;1.90;;;7.80;99.90;;;;;;5025353;28;20030;-81
2022/11/07 04:40:09;;;;;;;4.00;2.05;;;7.80;99.90;;;;;;5025872;28;20106;-82
2022/11/07 04:42:35;;;;;;;2.20;2.00;;;7.70;99.90;;;;;;5025515;28;20068;-82
2022/11/07 04:45:01;;;;;;;2.70;2.05;;;7.70;99.90;;;;;;5024137;28;20112;-81
2022/11/07 04:47:27;;;;;;;2.30;1.90;;;7.70;99.90;;;;;;5024529;28;20614;-82
2022/11/07 04:49:52;;;;;;;2.80;2.42;;;7.60;99.90;;;;;;5026413;28;20029;-82
2022/11/07 04:52:18;;;;;;;3.33;1.90;;;7.60;99.90;;;;;;5024536;28;20163;-82
2022/11/07 04:54:43;;;;;;;3.42;2.33;;;7.50;99.90;;;;;;5027721;28;21012;-82
2022/11/07 04:57:09;;;;;;;4.43;1.88;;;7.50;99.90;;;;;;5026911;28;20079;-82
2022/11/07 04:59:34;;;;;;;17.90;6.50;;;7.50;99.90;;;;;;5022252;28;20041;-82
2022/11/07 05:02:01;;;;;;;18.52;7.15;;;7.60;99.90;;;;;;5025360;28;20052;-82
2022/11/07 05:04:27;;;;;;;17.13;5.07;;;7.50;99.90;;;;;;5024169;28;20027;-81
2022/11/07 05:06:52;;;;;;;97.32;25.60;;;7.50;99.90;;;;;;5027426;28;20132;-82
2022/11/07 05:09:18;;;;;;;76.15;20.75;;;7.50;99.90;;;;;;5024074;28;20042;-82
2022/11/07 05:11:45;;;;;;;34.40;12.68;;;7.50;99.90;;;;;;5024444;28;20390;-82
2022/11/07 05:14:11;;;;;;;19.80;8.55;;;7.40;99.90;;;;;;5021829;28;20038;-81
2022/11/07 05:16:37;;;;;;;13.85;6.88;;;7.40;99.90;;;;;;5030278;28;20048;-81
2022/11/07 05:19:03;;;;;;;13.68;10.80;;;7.40;99.90;;;;;;5035962;28;20005;-82
2022/11/07 05:21:28;;;;;;;11.20;8.27;;;7.30;99.90;;;;;;5021650;28;20040;-83
2022/11/07 05:23:54;;;;;;;20.10;13.70;;;7.30;99.90;;;;;;5023817;28;20474;-84
2022/11/07 05:26:19;;;;;;;7.95;3.65;;;7.30;99.90;;;;;;5024450;28;20127;-85
2022/11/07 05:28:45;;;;;;;5.00;3.85;;;7.30;99.90;;;;;;5021641;28;20018;-83
2022/11/07 05:31:14;;;;;;;8.52;4.18;;;7.30;99.90;;;;;;5025321;28;20046;-82
2022/11/07 05:33:40;;;;;;;3.47;2.40;;;7.30;99.90;;;;;;5023779;28;20076;-86
2022/11/07 05:36:14;;;;;;;1.92;1.73;;;6.80;99.90;;;;;;5027189;28;20561;-82
2022/11/07 05:38:42;;;;;;;2.15;1.80;;;6.50;99.90;;;;;;5022841;28;20034;-82
2022/11/07 05:41:07;;;;;;;2.30;2.05;;;6.20;99.90;;;;;;5029405;28;20026;-81
2022/11/07 05:43:33;;;;;;;3.22;2.30;;;6.10;99.90;;;;;;5024251;28;20160;-82
2022/11/07 05:46:00;;;;;;;2.05;1.80;;;6.00;99.90;;;;;;5024431;28;20068;-81
2022/11/07 05:48:25;;;;;;;4.22;2.15;;;6.00;99.90;;;;;;5058211;28;20025;-82
2022/11/07 05:50:51;;;;;;;3.75;2.30;;;6.00;99.90;;;;;;5026690;28;20041;-82
2022/11/07 05:53:19;;;;;;;3.33;2.20;;;6.00;99.90;;;;;;5027996;28;20045;-82
2022/11/07 05:55:45;;;;;;;3.15;2.25;;;6.00;99.90;;;;;;5034624;28;20076;-82
2022/11/07 05:58:12;;;;;;;2.38;2.00;;;6.10;99.90;;;;;;5025926;28;20048;-82
2022/11/07 06:00:38;;;;;;;11.90;2.72;;;6.10;99.90;;;;;;5024917;28;20046;-82
2022/11/07 06:03:04;;;;;;;4.68;2.20;;;6.20;99.90;;;;;;5035293;28;20038;-82
2022/11/07 06:05:30;;;;;;;3.55;2.15;;;6.10;99.90;;;;;;5031752;28;20044;-83
2022/11/07 06:07:56;;;;;;;2.97;1.88;;;6.20;99.90;;;;;;5025274;28;20029;-82
2022/11/07 06:10:22;;;;;;;4.80;2.58;;;6.20;99.90;;;;;;5026740;28;20040;-81
2022/11/07 06:12:59;;;;;;;4.93;2.00;;;6.30;99.90;;;;;;5031034;28;20029;-82
2022/11/07 06:15:26;;;;;;;4.15;2.67;;;6.40;99.90;;;;;;5025829;28;20124;-81
2022/11/07 06:17:51;;;;;;;2.90;2.40;;;6.40;99.90;;;;;;5026040;28;20044;-81
2022/11/07 06:20:17;;;;;;;2.40;1.80;;;6.50;99.90;;;;;;5025688;28;20037;-81
2022/11/07 06:22:42;;;;;;;3.50;2.40;;;6.60;99.90;;;;;;5025941;28;20024;-82
2022/11/07 06:25:08;;;;;;;2.22;2.03;;;6.70;99.90;;;;;;5026759;28;20040;-83
2022/11/07 06:27:34;;;;;;;3.97;2.83;;;6.70;99.90;;;;;;5027143;28;20060;-82
2022/11/07 06:29:59;;;;;;;3.65;2.17;;;6.80;99.90;;;;;;5026006;28;20070;-81
2022/11/07 06:32:26;;;;;;;3.53;2.40;;;6.80;99.90;;;;;;5024992;28;20046;-80
2022/11/07 06:34:51;;;;;;;3.60;2.60;;;6.80;99.90;;;;;;5026828;28;20049;-80
2022/11/07 06:37:17;;;;;;;3.80;2.85;;;6.80;99.90;;;;;;5027262;28;20025;-80
2022/11/07 06:39:42;;;;;;;5.55;3.45;;;6.70;99.90;;;;;;5026783;28;20041;-80
2022/11/07 06:42:08;;;;;;;8.27;3.35;;;6.70;99.90;;;;;;5026607;28;20034;-80
2022/11/07 06:44:34;;;;;;;2.60;2.40;;;6.70;99.90;;;;;;5029348;28;20052;-81
2022/11/07 06:46:59;;;;;;;8.75;3.83;;;6.80;99.90;;;;;;5024827;28;20052;-81
2022/11/07 06:49:28;;;;;;;21.33;11.98;;;6.80;99.90;;;;;;5031369;28;20034;-82
2022/11/07 06:51:53;;;;;;;10.68;7.55;;;6.80;99.90;;;;;;5033003;28;20474;-80
2022/11/07 06:54:19;;;;;;;25.88;19.33;;;6.90;99.90;;;;;;5033360;28;20037;-80
2022/11/07 06:56:44;;;;;;;4.07;3.67;;;7.00;99.90;;;;;;5033771;28;20065;-80
2022/11/07 06:59:10;;;;;;;6.60;5.13;;;7.10;99.90;;;;;;5029032;28;20068;-80
2022/11/07 07:01:36;;;;;;;5.18;3.50;;;7.30;99.90;;;;;;5033747;28;20068;-80
2022/11/07 07:04:01;;;;;;;2.85;2.65;;;7.30;99.90;;;;;;5029483;28;20045;-80
2022/11/07 07:06:27;;;;;;;2.97;2.10;;;7.60;99.90;;;;;;5024245;28;20033;-80
2022/11/07 07:08:53;;;;;;;6.15;2.38;;;7.70;99.90;;;;;;5027165;28;20038;-80
2022/11/07 07:11:19;;;;;;;1.90;1.80;;;7.80;99.90;;;;;;5026390;28;20036;-82
2022/11/07 07:13:44;;;;;;;2.13;1.70;;;8.00;99.90;;;;;;5028036;28;20033;-80
2022/11/07 07:16:10;;;;;;;3.90;2.00;;;8.10;99.90;;;;;;5032365;28;20093;-82
2022/11/07 07:18:35;;;;;;;2.13;1.92;;;8.20;99.90;;;;;;5040735;28;20033;-83
2022/11/07 07:21:11;;;;;;;2.10;1.90;;;8.30;99.90;;;;;;5041153;28;20048;-88
2022/11/07 07:23:37;;;;;;;2.28;1.80;;;8.40;99.90;;;;;;5037133;28;20022;-82
2022/11/07 07:26:12;;;;;;;3.10;2.33;;;8.50;99.90;;;;;;5040950;28;20056;-82
2022/11/07 07:28:38;;;;;;;1.80;1.70;;;8.60;99.90;;;;;;5033527;28;20042;-81
2022/11/07 07:31:19;;;;;;;2.75;1.70;;;8.60;99.90;;;;;;5039128;28;20093;-82
2022/11/07 07:33:46;;;;;;;2.20;1.80;;;8.70;99.90;;;;;;5042974;28;20037;-82
2022/11/07 07:36:12;;;;;;;4.80;1.95;;;8.70;99.90;;;;;;5041297;28;20042;-81
2022/11/07 07:38:38;;;;;;;2.05;1.77;;;8.80;99.90;;;;;;5043798;28;20621;-81
2022/11/07 07:41:04;;;;;;;2.15;1.80;;;8.90;99.90;;;;;;5039711;28;20030;-82
2022/11/07 07:43:30;;;;;;;2.58;1.58;;;8.90;99.90;;;;;;5038380;28;20039;-82
2022/11/07 07:46:04;;;;;;;1.60;1.50;;;9.00;99.90;;;;;;5038197;28;20065;-81
2022/11/07 07:48:30;;;;;;;2.85;1.50;;;9.00;99.90;;;;;;5037411;28;20025;-81
2022/11/07 07:50:56;;;;;;;2.20;1.70;;;9.20;99.90;;;;;;5038687;28;20029;-83
2022/11/07 07:53:22;;;;;;;2.35;1.40;;;9.30;99.90;;;;;;5043207;28;20041;-82
2022/11/07 07:55:48;;;;;;;2.30;1.90;;;9.40;99.90;;;;;;5041898;28;20045;-81
2022/11/07 07:58:13;;;;;;;1.95;1.38;;;9.50;99.90;;;;;;5043240;28;20044;-81
2022/11/07 08:00:39;;;;;;;2.85;1.80;;;9.50;99.90;;;;;;5041120;28;20530;-82
2022/11/07 08:03:08;;;;;;;1.42;1.33;;;9.60;99.90;;;;;;5041309;28;20036;-81
2022/11/07 08:05:34;;;;;;;1.17;1.08;;;9.70;99.90;;;;;;5041772;28;20022;-82
2022/11/07 08:07:59;;;;;;;1.35;1.25;;;9.80;99.90;;;;;;5042839;28;20096;-83
2022/11/07 08:10:25;;;;;;;2.72;1.20;;;9.80;99.90;;;;;;5039201;28;20056;-82
2022/11/07 08:12:51;;;;;;;1.20;1.10;;;9.90;99.90;;;;;;5041314;28;20529;-82
2022/11/07 08:15:18;;;;;;;2.67;1.48;;;10.10;99.90;;;;;;5042158;28;20053;-83
2022/11/07 08:17:45;;;;;;;1.90;1.45;;;10.10;99.90;;;;;;5039906;28;20026;-82
2022/11/07 08:20:13;;;;;;;1.77;1.10;;;10.10;99.90;;;;;;5039989;28;20052;-82
2022/11/07 08:22:39;;;;;;;1.40;1.30;;;10.20;99.90;;;;;;5040874;28;20096;-82
2022/11/07 08:25:07;;;;;;;1.77;1.50;;;10.20;99.90;;;;;;5043224;28;20053;-81
2022/11/07 08:27:33;;;;;;;1.42;1.23;;;10.20;99.90;;;;;;5040018;28;20036;-82
2022/11/07 08:29:59;;;;;;;1.55;1.42;;;10.20;99.90;;;;;;5041111;28;20056;-82
2022/11/07 08:32:28;;;;;;;2.30;1.30;;;10.30;99.90;;;;;;5043286;28;20093;-86
2022/11/07 08:34:54;;;;;;;1.63;1.15;;;10.40;99.90;;;;;;5039713;28;20044;-87
2022/11/07 08:37:20;;;;;;;2.78;1.70;;;10.50;99.90;;;;;;5039994;28;20025;-83
2022/11/07 08:39:45;;;;;;;1.20;1.10;;;10.60;99.90;;;;;;5046147;28;20036;-82
2022/11/07 08:42:11;;;;;;;1.33;1.15;;;10.70;99.90;;;;;;5041720;28;20478;-83
2022/11/07 08:44:36;;;;;;;1.40;1.30;;;10.90;99.90;;;;;;5044533;28;20033;-83
2022/11/07 08:47:03;;;;;;;3.22;1.52;;;11.10;99.90;;;;;;5045856;28;20045;-83
2022/11/07 08:49:28;;;;;;;0.85;0.85;;;11.30;99.90;;;;;;5043921;28;20029;-83
2022/11/07 08:51:54;;;;;;;0.90;0.90;;;11.30;99.90;;;;;;5042807;28;20059;-82
2022/11/07 08:54:20;;;;;;;1.30;1.00;;;11.40;99.90;;;;;;5031012;28;20030;-81
2022/11/07 08:56:47;;;;;;;1.05;1.00;;;11.50;99.90;;;;;;5034262;28;20129;-82
2022/11/07 08:59:13;;;;;;;1.38;1.00;;;11.50;99.90;;;;;;5040806;28;20033;-81
2022/11/07 09:01:38;;;;;;;0.60;0.60;;;11.60;99.90;;;;;;5042179;28;20061;-82
2022/11/07 09:04:04;;;;;;;1.15;1.05;;;11.70;99.90;;;;;;5046702;28;20135;-81
2022/11/07 09:06:31;;;;;;;2.05;1.27;;;11.80;99.90;;;;;;5044563;28;20551;-81
2022/11/07 09:08:58;;;;;;;1.08;0.90;;;11.90;99.90;;;;;;5043681;28;20109;-82
2022/11/07 09:11:24;;;;;;;1.50;1.50;;;12.00;99.90;;;;;;5041589;28;20026;-81
2022/11/07 09:13:50;;;;;;;1.58;1.10;;;12.10;99.90;;;;;;5052934;28;20123;-81
2022/11/07 09:16:16;;;;;;;1.48;1.35;;;12.20;99.90;;;;;;5041406;28;20044;-81
2022/11/07 09:18:43;;;;;;;0.80;0.60;;;12.40;99.90;;;;;;5048073;28;20388;-82
2022/11/07 09:21:09;;;;;;;1.48;0.80;;;12.40;99.90;;;;;;5038840;28;20030;-82
2022/11/07 09:23:35;;;;;;;2.33;1.17;;;12.50;99.90;;;;;;5041901;28;20029;-81
2022/11/07 09:26:01;;;;;;;0.60;0.60;;;12.60;99.90;;;;;;5044450;28;20036;-81
2022/11/07 09:28:28;;;;;;;0.65;0.65;;;12.60;99.90;;;;;;5050680;28;20025;-84
2022/11/07 09:30:55;;;;;;;0.68;0.68;;;12.60;99.90;;;;;;5034285;28;20042;-80
2022/11/07 09:33:21;;;;;;;0.98;0.98;;;12.70;99.90;;;;;;5046582;28;20045;-80
2022/11/07 09:35:47;;;;;;;0.80;0.80;;;12.70;99.90;;;;;;5047535;28;20044;-81
2022/11/07 09:38:16;;;;;;;1.35;0.80;;;12.70;99.90;;;;;;5046241;28;20030;-81
2022/11/07 09:41:13;;;;;;;0.77;0.77;;;12.60;99.90;;;;;;5038426;28;20034;-81
2022/11/07 09:43:41;;;;;;;0.65;0.65;;;12.50;99.90;;;;;;5038821;28;20033;-83
2022/11/07 09:46:25;;;;;;;;;;;12.50;99.90;;;;;;5040062;28;20519;-81
2022/11/07 09:48:57;;;;;;;1.08;0.77;;;12.60;99.90;;;;;;5038987;28;19924;-86
2022/11/07 09:51:35;;;;;;;1.33;0.60;;;12.70;99.90;;;;;;5036432;28;20022;-85
2022/11/07 09:54:19;;;;;;;1.10;1.10;;;12.80;99.90;;;;;;5039515;28;20252;-81
2022/11/07 09:56:45;;;;;;;2.00;0.90;;;12.80;99.90;;;;;;5032927;28;20034;-80
2022/11/07 09:59:26;;;;;;;3.30;0.98;;;12.90;99.90;;;;;;5040052;28;20021;-82
2022/11/07 10:01:52;;;;;;;1.45;0.93;;;13.00;99.90;;;;;;5042039;28;20041;-82
2022/11/07 10:04:20;;;;;;;1.27;0.90;;;13.20;99.90;;;;;;5040024;28;20112;-82
2022/11/07 10:07:00;;;;;;;3.35;0.90;;;13.30;99.90;;;;;;5038227;28;20037;-84
2022/11/07 10:09:45;;;;;;;2.60;0.98;;;13.40;99.90;;;;;;5039180;28;20033;-82
2022/11/07 10:12:38;;;;;;;0.60;0.60;;;13.50;99.90;;;;;;5042215;28;20044;-82
2022/11/07 10:15:13;;;;;;;1.40;1.10;;;13.50;99.90;;;;;;5037414;28;20033;-82
2022/11/07 10:18:16;;;;;;;0.85;0.82;;;13.50;99.90;;;;;;5044576;28;20439;-82
2022/11/07 10:21:11;;;;;;;1.70;1.25;;;13.40;99.90;;;;;;5069285;28;20079;-81
2022/11/07 10:23:49;;;;;;;2.28;1.00;;;13.50;99.90;;;;;;5039814;28;20048;-80
2022/11/07 10:26:18;;;;;;;0.50;0.50;;;13.70;99.90;;;;;;5043605;28;20060;-81
2022/11/07 10:28:55;;;;;;;1.75;0.70;;;13.70;97.70;;;;;;5044822;28;20055;-81
2022/11/07 10:31:21;;;;;;;0.40;0.40;;;13.70;99.90;;;;;;5039606;28;20049;-81
2022/11/07 10:33:58;;;;;;;1.05;0.85;;;13.70;99.90;;;;;;5040001;28;20036;-81
2022/11/07 10:36:27;;;;;;;1.08;0.40;;;13.60;97.50;;;;;;5038446;28;20033;-80
2022/11/07 10:38:52;;;;;;;0.60;0.52;;;13.50;98.90;;;;;;5037712;28;20033;-81
2022/11/07 10:41:23;;;;;;;1.25;0.52;;;13.50;97.80;;;;;;5041627;28;20371;-82
2022/11/07 10:44:30;;;;;;;1.08;0.65;;;13.40;99.60;;;;;;5040270;28;20116;-81
2022/11/07 10:46:56;;;;;;;0.70;0.70;;;13.40;98.50;;;;;;5040978;28;20077;-81
2022/11/07 10:49:25;;;;;;;0.82;0.70;;;13.40;99.90;;;;;;5039084;28;20036;-81
2022/11/07 10:51:51;;;;;;;0.98;0.60;;;13.40;99.90;;;;;;5041274;28;20029;-81
2022/11/07 10:54:28;;;;;;;1.52;1.08;;;13.50;97.70;;;;;;5041972;28;20037;-82
2022/11/07 10:57:02;;;;;;;1.00;0.68;;;13.50;99.60;;;;;;5040249;28;20068;-81
2022/11/07 10:59:31;;;;;;;1.42;0.80;;;13.60;97.60;;;;;;5038907;28;20085;-81
2022/11/07 11:01:58;;;;;;;1.02;0.75;;;13.70;99.20;;;;;;5038778;28;20052;-81
2022/11/07 11:04:30;;;;;;;1.33;0.80;;;13.60;98.70;;;;;;5044127;28;20025;-81
2022/11/07 11:07:05;;;;;;;0.63;0.63;;;13.60;97.50;;;;;;5038474;28;20040;-81
2022/11/07 11:09:34;;;;;;;0.75;0.70;;;13.50;97.60;;;;;;5038544;28;20040;-82
2022/11/07 11:12:11;;;;;;;1.02;1.00;;;13.40;98.50;;;;;;5039731;28;20021;-82
2022/11/07 11:14:36;;;;;;;2.55;1.08;;;13.30;98.70;;;;;;5038308;28;20037;-82
2022/11/07 11:17:02;;;;;;;1.30;0.77;;;13.40;99.40;;;;;;5041720;28;20041;-80
2022/11/07 11:19:47;;;;;;;1.58;1.48;;;13.40;96.70;;;;;;5035663;28;20425;-81
2022/11/07 11:22:18;;;;;;;1.05;0.90;;;13.50;97.70;;;;;;5039811;28;20018;-81
2022/11/07 11:24:44;;;;;;;0.77;0.77;;;13.50;96.90;;;;;;5036388;28;20033;-81
2022/11/07 11:27:15;;;;;;;0.80;0.65;;;13.50;99.10;;;;;;5040424;28;20052;-81
2022/11/07 11:30:04;;;;;;;0.63;0.63;;;13.60;98.80;;;;;;5041380;28;20774;-81
2022/11/07 11:32:45;;;;;;;0.77;0.77;;;13.70;99.20;;;;;;5038833;28;20045;-83
2022/11/07 11:35:27;;;;;;;1.35;1.35;;;13.60;98.00;;;;;;5040846;28;20101;-81
2022/11/07 11:38:18;;;;;;;1.30;1.08;;;13.70;97.20;;;;;;5039928;28;20565;-81
2022/11/07 11:40:51;;;;;;;0.50;0.50;;;13.70;98.50;;;;;;5040831;28;20037;-81
2022/11/07 11:43:25;;;;;;;1.55;0.88;;;13.70;98.00;;;;;;5036311;28;20017;-81
2022/11/07 11:46:22;;;;;;;3.45;1.00;;;13.70;96.70;;;;;;5037602;28;20401;-81
2022/11/07 11:48:56;;;;;;;1.45;0.75;;;13.80;97.10;;;;;;5046429;28;20026;-82
2022/11/07 11:51:44;;;;;;;3.25;0.90;;;13.80;96.00;;;;;;5037475;28;20049;-81
2022/11/07 11:54:12;;;;;;;3.47;0.80;;;13.80;98.30;;;;;;5040472;28;20033;-81
2022/11/07 11:57:03;;;;;;;0.93;0.80;;;13.90;97.40;;;;;;5042077;28;20021;-81
2022/11/07 11:59:52;;;;;;;3.83;0.88;;;14.00;99.00;;;;;;5040878;28;20036;-81
2022/11/07 12:02:26;;;;;;;0.50;0.50;;;13.90;96.90;;;;;;5067265;28;20052;-82
2022/11/07 12:05:25;;;;;;;2.85;0.90;;;13.80;96.30;;;;;;5043248;28;20049;-82
2022/11/07 12:08:19;;;;;;;1.55;0.88;;;13.80;97.30;;;;;;5033921;28;20037;-82
2022/11/07 12:11:09;;;;;;;2.25;0.90;;;13.70;98.10;;;;;;5044310;28;20036;-83
2022/11/07 12:13:48;;;;;;;3.80;1.00;;;13.70;98.10;;;;;;5043559;28;20041;-81
2022/11/07 12:16:26;;;;;;;1.40;0.73;;;13.60;97.90;;;;;;5042261;28;20037;-81
2022/11/07 12:19:11;;;;;;;1.35;1.00;;;13.50;99.00;;;;;;5042844;28;20029;-81
2022/11/07 12:21:52;;;;;;;1.27;1.00;;;13.50;99.10;;;;;;5041511;28;20028;-83
2022/11/07 12:24:40;;;;;;;2.17;0.88;;;13.50;98.60;;;;;;5041966;28;20072;-85
2022/11/07 12:27:33;;;;;;;1.50;1.00;;;13.50;99.90;;;;;;5038874;28;20045;-81
2022/11/07 12:30:18;;;;;;;1.38;0.95;;;13.70;99.30;;;;;;5043290;28;20029;-81
2022/11/07 12:33:22;;;;;;;1.38;0.80;;;13.70;98.00;;;;;;5050370;28;20029;-81
2022/11/07 12:35:57;;;;;;;1.25;0.80;;;13.80;99.20;;;;;;5042347;28;20037;-82
2022/11/07 12:38:49;;;;;;;1.83;0.80;;;13.80;97.70;;;;;;5040591;28;20051;-81
2022/11/07 12:41:32;;;;;;;1.67;1.02;;;13.70;99.60;;;;;;5041423;28;20029;-82
2022/11/07 12:44:00;;;;;;;1.52;0.70;;;13.60;98.40;;;;;;5050419;28;20056;-82
2022/11/07 12:46:38;;;;;;;1.83;0.80;;;13.60;98.50;;;;;;5047573;28;20073;-82
2022/11/07 12:49:23;;;;;;;;;;;13.60;97.30;;;;;;5045297;28;20026;-82
2022/11/07 12:52:27;;;;;;;2.80;1.23;;;13.60;99.10;;;;;;5045480;28;19949;-83
2022/11/07 12:54:53;;;;;;;0.95;0.75;;;13.60;99.70;;;;;;5041762;28;20025;-82
2022/11/07 12:57:22;;;;;;;0.75;0.70;;;13.60;99.90;;;;;;5040315;28;20089;-82
2022/11/07 13:00:11;;;;;;;2.33;1.00;;;13.70;99.90;;;;;;5047755;28;20187;-82
2022/11/07 13:02:57;;;;;;;1.60;0.70;;;13.60;96.00;;;;;;5045314;28;20045;-86
2022/11/07 13:05:39;;;;;;;1.35;0.90;;;13.50;98.00;;;;;;5043166;28;20053;-82
2022/11/07 13:08:29;;;;;;;0.82;0.80;;;13.50;99.70;;;;;;5044590;28;20025;-82
2022/11/07 13:11:02;;;;;;;2.22;0.85;;;13.40;99.40;;;;;;5043406;28;20068;-83
2022/11/07 13:13:49;;;;;;;2.70;0.77;;;13.50;98.60;;;;;;5042117;28;20650;-82